Date,TemperatureHighF,TemperatureAvgF,TemperatureLowF,DewpointHighF,DewpointAvgF,DewpointLowF,HumidityHigh,HumidityAvg,HumidityLow,PressureMaxIn,PressureMinIn,WindSpeedMaxMPH,WindSpeedAvgMPH,GustSpeedMaxMPH,PrecipitationSumIn
2013-2-1,12.6,4.7,-3.3,8.7,-2.8,-9.3,86,71,60,30.29,30.10,0,0,0,0.00
2013-2-2,21.6,13.6,3.4,19.9,8.4,-2.5,93,79,58,30.10,29.95,0,0,0,0.00
2013-2-3,23.2,15.7,7.5,16.5,9.7,1.9,91,77,59,30.02,29.90,0,0,0,0.00
2013-2-4,27.3,20.0,7.9,21.8,16.4,1.8,94,86,76,29.98,29.83,0,0,0,0.00
2013-2-5,29.1,21.1,4.3,24.6,16.6,-0.2,87,82,74,30.05,29.76,17,4,17,0.00
2013-2-6,39.0,24.5,8.1,27.0,16.2,5.1,89,72,52,30.19,30.04,12,3,12,0.12
2013-2-7,34.0,32.7,27.7,33.3,31.9,27.1,99,97,86,30.06,29.84,10,1,10,0.46
2013-2-8,32.7,24.8,21.7,27.1,21.5,19.0,99,87,69,31.00,29.94,0,0,0,0.01
2013-2-9,35.2,27.2,23.0,25.9,22.8,20.6,93,84,66,30.35,30.03,16,2,16,0.04
2013-2-10,45.3,38.1,27.5,44.5,36.0,25.2,99,92,72,30.04,29.45,21,9,21,0.63
2013-2-11,41.2,31.8,26.6,33.9,24.4,19.8,79,74,69,29.99,29.48,36,18,36,0.00
2013-2-12,28.4,24.1,18.5,21.2,19.0,15.8,91,80,69,30.06,29.87,20,6,20,0.00
2013-2-13,41.9,31.6,18.3,32.7,26.9,16.7,95,83,61,29.87,29.69,14,4,14,0.00
2013-2-14,36.5,35.2,34.5,31.8,31.2,30.8,86,85,83,29.70,29.61,11,4,11,0.00
2013-2-15,45.3,39.2,32.5,44.5,35.6,24.5,99,88,71,30.27,29.90,36,14,36,0.61
2013-2-16,32.5,27.8,23.0,25.9,20.9,17.1,81,75,69,30.50,30.09,27,13,27,0.00
2013-2-17,29.7,23.4,18.5,26.8,19.7,16.3,95,86,70,30.50,30.19,12,3,12,0.00
2013-2-18,50.0,42.8,25.5,45.2,36.9,22.3,98,81,58,30.20,29.84,25,8,25,0.38
2013-2-19,25.3,13.4,8.1,22.3,7.3,1.6,88,76,65,30.58,29.98,0,0,0,0.00
2013-2-20,24.4,13.8,5.5,11.9,4.8,-1.7,83,67,54,30.75,30.58,0,0,0,0.00
2013-2-21,27.9,22.5,10.0,24.8,18.4,6.0,94,84,79,30.77,30.38,21,5,21,0.00
2013-2-22,33.6,27.2,23.4,30.6,24.8,21.5,96,90,82,30.38,30.20,21,9,21,0.05
2013-2-23,31.5,24.6,18.9,24.1,18.7,15.0,90,78,58,30.36,30.29,20,8,20,0.01
2013-2-24,39.0,25.3,13.3,20.7,16.8,10.6,90,72,44,30.55,30.36,8,3,8,0.00
2013-2-25,46.0,31.6,16.7,28.4,21.2,14.1,91,69,35,30.57,30.37,11,3,11,0.00
2013-2-26,35.8,33.0,30.7,31.9,28.9,24.9,99,86,66,30.37,29.96,27,12,27,0.00
2013-2-27,34.5,32.2,29.8,32.2,31.0,29.5,99,95,89,30.14,29.95,12,3,12,0.18
2013-2-28,37.9,32.3,26.4,31.4,27.6,18.5,97,83,69,30.49,30.13,14,4,14,0.08